Terminal Aerodrome Forecast
Issued by NWS

Home | Current Version | Previous Version | Text Only | Print | Product List | Glossary On
Versions: 1 2 3 4 5 6 7 8 9 10 11 12 13 14 15 16
348
FTAK31 PAJN 191720
TAFAJN
TAF
PAJN 191720Z 1918/2018 30007KT P6SM VCSH FEW001 BKN025 OVC035
      TEMPO 1918/1920 5SM -RASN SCT015 OVC025
     FM192000 VRB04KT P6SM VCSH SCT025 BKN035 OVC050
     FM200200 00000KT 3SM -SHSN BKN025 OVC040
     FM201400 00000KT P6SM SCT035 BKN060=

USA.gov is the U.S. government's official web portal to all federal, state and local government web resources and services.